Time;durP1;ratioP1;P1;durP2;ratioP2;P2;SDS_P1;SDS_P2;PMS_P1;PMS_P2;Temp;Humidity;BMP_temperature;BMP_pressure;BME280_temperature;BME280_humidity;BME280_pressure;Samples;Min_cycle;Max_cycle;Signal;HPM_P1;HPM_P2
2023/07/11 00:00:20;;;;;;;;;;;;;;;25.57;54.30;99639.97;4497070;31;35205;-75
2023/07/11 00:02:49;;;;;;;;;;;;;;;25.32;53.85;99639.19;4497950;31;33978;-76
2023/07/11 00:05:22;;;;;;;;;;;;;;;25.40;53.93;99643.91;4499929;31;32910;-75
2023/07/11 00:07:51;;;;;;;;;;;;;;;25.51;52.95;99635.09;4500222;31;34802;-75
2023/07/11 00:10:22;;;;;;;;;;;;;;;25.28;53.45;99636.88;4502745;31;34127;-75
2023/07/11 00:12:52;;;;;;;;;;;;;;;25.39;52.99;99636.88;4505833;31;34438;-75
2023/07/11 00:15:21;;;;;;;;;;;;;;;25.08;53.87;99635.66;4507048;31;35188;-76
2023/07/11 00:17:50;;;;;;;;;;;;;;;25.00;53.87;99635.37;4500178;31;33832;-74
2023/07/11 00:20:25;;;;;;;;;;;;;;;24.98;54.00;99632.81;4512140;31;34963;-76
2023/07/11 00:22:53;;;;;;;;;;;;;;;25.14;53.40;99637.84;4500036;31;35525;-75
2023/07/11 00:25:22;;;;;;;;;;;;;;;25.04;53.48;99635.03;4495253;31;33065;-76
2023/07/11 00:27:54;;;;;;;;;;;;;;;25.05;53.67;99635.87;4493451;31;34851;-76
2023/07/11 00:30:28;;;;;;;;;;;;;;;24.85;55.05;99630.25;4500880;31;33942;-77
2023/07/11 00:32:56;;;;;;;;;;;;;;;24.84;54.47;99628.56;4499948;31;33297;-74
2023/07/11 00:35:29;;;;;;;;;;;;;;;24.88;54.05;99624.69;4493866;31;33409;-77
2023/07/11 00:37:59;;;;;;;;;;;;;;;24.89;54.56;99622.91;4497229;31;33739;-76
2023/07/11 00:40:30;;;;;;;;;;;;;;;24.83;54.41;99620.69;4503350;31;33723;-75
2023/07/11 00:43:01;;;;;;;;;;;;;;;24.90;54.73;99613.97;4477750;32;34043;-75
2023/07/11 00:45:49;;;;;;;;;;;;;;;24.68;54.82;99606.75;4476413;32;33041;-76
2023/07/11 00:48:24;;;;;;;;;;;;;;;24.77;55.34;99611.41;4474023;32;33458;-76
2023/07/11 00:50:56;;;;;;;;;;;;;;;24.64;54.81;99613.25;4472875;32;36094;-75
2023/07/11 00:53:25;;;;;;;;;;;;;;;24.71;54.49;99609.19;4478878;32;34854;-75
2023/07/11 00:55:54;;;;;;;;;;;;;;;24.80;54.28;99602.38;4484325;32;33092;-75
2023/07/11 00:58:25;;;;;;;;;;;;;;;24.85;53.72;99605.53;4473541;32;35143;-76
2023/07/11 01:00:55;;;;;;;;;;;;;;;24.56;54.73;99605.00;4472318;32;33782;-78
2023/07/11 01:03:25;;;;;;;;;;;;;;;24.81;54.54;99609.34;4466497;32;34895;-77
2023/07/11 01:05:55;;;;;;;;;;;;;;;24.94;53.38;99610.16;4472087;32;34101;-77
2023/07/11 01:08:28;;;;;;;;;;;;;;;24.81;53.42;99609.34;4473655;32;34280;-74
2023/07/11 01:11:04;;;;;;;;;;;;;;;24.82;53.62;99611.06;4469458;32;33672;-76
2023/07/11 01:13:44;;;;;;;;;;;;;;;25.02;54.05;99612.22;4482446;32;33816;-75
2023/07/11 01:16:13;;;;;;;;;;;;;;;24.87;54.01;99604.44;4477539;32;33561;-77
2023/07/11 01:18:46;;;;;;;;;;;;;;;24.90;53.96;99606.03;4476416;32;34572;-77
2023/07/11 01:21:17;;;;;;;;;;;;;;;24.95;54.34;99598.56;4471495;32;34038;-77
2023/07/11 01:23:45;;;;;;;;;;;;;;;25.21;53.88;99599.31;4469254;32;33289;-76
2023/07/11 01:26:16;;;;;;;;;;;;;;;25.07;54.69;99599.47;4477609;32;33391;-77
2023/07/11 01:28:48;;;;;;;;;;;;;;;25.21;53.24;99601.12;4471593;32;33140;-75
2023/07/11 01:31:17;;;;;;;;;;;;;;;25.11;53.99;99595.63;4477751;32;33835;-77
2023/07/11 01:33:52;;;;;;;;;;;;;;;25.06;53.48;99597.78;4477890;32;34285;-76
2023/07/11 01:36:22;;;;;;;;;;;;;;;25.06;53.65;99597.78;4474865;32;33178;-75
2023/07/11 01:38:51;;;;;;;;;;;;;;;25.20;53.34;99592.31;4470126;32;33600;-75
2023/07/11 01:41:19;;;;;;;;;;;;;;;25.25;53.57;99597.25;4478999;31;34192;-75
2023/07/11 01:43:48;;;;;;;;;;;;;;;25.13;53.37;99591.06;4499071;31;34133;-75
2023/07/11 01:46:18;;;;;;;;;;;;;;;25.29;52.04;99585.44;4493737;31;33491;-77
2023/07/11 01:48:47;;;;;;;;;;;;;;;25.36;52.41;99591.97;4495907;31;33888;-75
2023/07/11 01:51:23;;;;;;;;;;;;;;;25.33;52.16;99584.25;4503714;31;34277;-75
2023/07/11 01:53:53;;;;;;;;;;;;;;;25.27;52.51;99577.62;4499554;31;33738;-77
2023/07/11 01:56:22;;;;;;;;;;;;;;;25.24;53.54;99574.31;4494826;31;34291;-76
2023/07/11 01:58:57;;;;;;;;;;;;;;;25.30;52.53;99585.34;4493439;31;33870;-75
2023/07/11 02:01:26;;;;;;;;;;;;;;;25.36;52.43;99580.50;4501696;31;34324;-77
2023/07/11 02:03:58;;;;;;;;;;;;;;;25.38;52.31;99584.75;4494026;31;35137;-76
2023/07/11 02:06:29;;;;;;;;;;;;;;;25.36;51.71;99576.03;4502629;31;33103;-74
2023/07/11 02:09:02;;;;;;;;;;;;;;;25.30;52.85;99574.72;4493779;31;34229;-77
2023/07/11 02:11:31;;;;;;;;;;;;;;;25.11;53.05;99580.53;4510991;31;34247;-76
2023/07/11 02:14:00;;;;;;;;;;;;;;;25.33;52.43;99573.63;4494082;31;34347;-76
2023/07/11 02:16:29;;;;;;;;;;;;;;;25.33;53.07;99576.28;4494795;31;34260;-76
2023/07/11 02:19:02;;;;;;;;;;;;;;;25.37;52.26;99583.06;4498706;31;34925;-77
2023/07/11 02:21:32;;;;;;;;;;;;;;;25.19;51.93;99571.19;4497258;31;32547;-75
2023/07/11 02:24:03;;;;;;;;;;;;;;;25.18;52.48;99580.97;4496119;31;34537;-75
2023/07/11 02:26:32;;;;;;;;;;;;;;;25.12;53.01;99571.59;4493392;31;33165;-76
2023/07/11 02:29:01;;;;;;;;;;;;;;;25.26;52.27;99570.59;4499150;31;35446;-77
2023/07/11 02:31:33;;;;;;;;;;;;;;;25.13;52.28;99567.16;4499593;31;34189;-77
2023/07/11 02:34:05;;;;;;;;;;;;;;;25.20;51.66;99564.91;4495154;31;35805;-76
2023/07/11 02:36:36;;;;;;;;;;;;;;;25.08;51.69;99567.50;4494696;31;32926;-77
2023/07/11 02:39:08;;;;;;;;;;;;;;;24.82;52.46;99566.78;4494472;31;34613;-76
2023/07/11 02:41:37;;;;;;;;;;;;;;;24.80;52.42;99562.56;4498606;31;34083;-76
2023/07/11 02:44:12;;;;;;;;;;;;;;;24.72;52.88;99564.91;4507232;31;34399;-74
2023/07/11 02:46:41;;;;;;;;;;;;;;;24.69;53.09;99569.53;4499445;31;34289;-75
2023/07/11 02:49:12;;;;;;;;;;;;;;;24.80;52.62;99571.38;4495611;31;34542;-76
2023/07/11 02:51:43;;;;;;;;;;;;;;;24.77;53.08;99568.09;4500964;31;34332;-75
2023/07/11 02:54:15;;;;;;;;;;;;;;;24.73;53.01;99572.78;4512939;31;33950;-77
2023/07/11 02:56:44;;;;;;;;;;;;;;;24.78;52.80;99567.13;4508994;31;33383;-76
2023/07/11 02:59:13;;;;;;;;;;;;;;;24.77;53.03;99566.28;4502737;31;33840;-76
2023/07/11 03:01:42;;;;;;;;;;;;;;;24.61;53.40;99565.72;4503779;31;33923;-77
2023/07/11 03:04:14;;;;;;;;;;;;;;;24.45;54.20;99569.47;4497900;31;33847;-75
2023/07/11 03:06:43;;;;;;;;;;;;;;;24.74;53.10;99574.47;4493951;31;32429;-75
2023/07/11 03:09:13;;;;;;;;;;;;;;;24.76;53.31;99575.19;4493279;31;33224;-75
2023/07/11 03:11:42;;;;;;;;;;;;;;;24.64;53.73;99578.75;4493913;31;33917;-76
2023/07/11 03:14:13;;;;;;;;;;;;;;;24.58;54.10;99576.56;4498354;31;34705;-75
2023/07/11 03:16:44;;;;;;;;;;;;;;;24.54;54.31;99577.75;4508155;31;32594;-76
2023/07/11 03:19:17;;;;;;;;;;;;;;;24.72;54.07;99588.78;4493753;31;33325;-76
2023/07/11 03:21:48;;;;;;;;;;;;;;;24.79;53.82;99585.59;4492893;31;33557;-75
2023/07/11 03:24:28;;;;;;;;;;;;;;;24.53;54.68;99582.22;4492806;31;33606;-76
2023/07/11 03:26:57;;;;;;;;;;;;;;;24.84;53.99;99582.59;4497765;31;33208;-75
2023/07/11 03:29:26;;;;;;;;;;;;;;;24.79;54.04;99585.59;4492484;31;33653;-75
2023/07/11 03:31:56;;;;;;;;;;;;;;;24.88;53.93;99586.72;4498945;31;34835;-76
2023/07/11 03:34:28;;;;;;;;;;;;;;;24.75;54.32;99583.28;4493561;31;34953;-76
2023/07/11 03:36:58;;;;;;;;;;;;;;;24.96;53.73;99586.12;4492982;31;34264;-76
2023/07/11 03:39:33;;;;;;;;;;;;;;;24.68;54.64;99586.38;4497782;31;33895;-76
2023/07/11 03:42:08;;;;;;;;;;;;;;;24.86;54.59;99594.81;4461448;31;1104439;-76
2023/07/11 03:44:38;;;;;;;;;;;;;;;24.94;53.95;99602.19;4495129;31;33998;-75
2023/07/11 03:47:10;;;;;;;;;;;;;;;25.09;53.78;99594.88;4493763;31;33489;-76
2023/07/11 03:49:39;;;;;;;;;;;;;;;25.15;53.55;99594.41;4500337;31;33609;-78
2023/07/11 03:52:11;;;;;;;;;;;;;;;24.81;54.81;99598.75;4496585;31;34045;-74
2023/07/11 03:54:40;;;;;;;;;;;;;;;25.02;54.41;99594.50;4497834;31;33967;-75
2023/07/11 03:57:11;;;;;;;;;;;;;;;25.10;54.32;99601.88;4494592;31;33155;-75
2023/07/11 03:59:40;;;;;;;;;;;;;;;24.75;55.50;99599.22;4503813;31;35458;-75
2023/07/11 04:02:26;;;;;;;;;;;;;;;25.01;54.86;99603.44;4500589;31;34196;-75
2023/07/11 04:05:02;;;;;;;;;;;;;;;24.96;54.92;99602.06;4500366;31;34296;-76
2023/07/11 04:07:38;;;;;;;;;;;;;;;24.77;55.57;99605.25;4508023;31;34052;-76
2023/07/11 04:10:08;;;;;;;;;;;;;;;24.49;56.54;99600.13;4508215;31;34207;-75
2023/07/11 04:12:37;;;;;;;;;;;;;;;24.75;55.97;99604.50;4494795;31;34257;-76
2023/07/11 04:15:06;;;;;;;;;;;;;;;24.77;55.83;99605.25;4500660;31;35085;-76
2023/07/11 04:17:37;;;;;;;;;;;;;;;24.61;56.11;99605.50;4495065;31;34860;-75
2023/07/11 04:20:08;;;;;;;;;;;;;;;24.51;56.41;99602.69;4494335;31;33673;-75
2023/07/11 04:22:39;;;;;;;;;;;;;;;24.58;56.36;99611.06;4496215;31;35790;-75
2023/07/11 04:25:08;;;;;;;;;;;;;;;24.53;56.54;99610.53;4494919;31;33330;-75
2023/07/11 04:27:37;;;;;;;;;;;;;;;24.47;56.96;99614.47;4499872;31;33805;-77
2023/07/11 04:30:12;;;;;;;;;;;;;;;24.29;57.56;99613.97;4505636;31;34598;-77
2023/07/11 04:32:41;;;;;;;;;;;;;;;24.65;56.58;99620.25;4504487;31;34888;-77
2023/07/11 04:35:13;;;;;;;;;;;;;;;24.74;56.18;99619.56;4494859;31;34757;-77
2023/07/11 04:37:48;;;;;;;;;;;;;;;24.76;56.05;99612.34;4500594;31;32405;-76
2023/07/11 04:40:19;;;;;;;;;;;;;;;25.02;55.44;99617.53;4503647;31;33912;-75
2023/07/11 04:42:51;;;;;;;;;;;;;;;25.09;55.26;99618.78;4496733;31;33793;-75
2023/07/11 04:45:20;;;;;;;;;;;;;;;25.49;54.26;99616.66;4496169;31;34930;-76
2023/07/11 04:47:52;;;;;;;;;;;;;;;25.75;52.70;99619.09;4501726;31;33243;-78
2023/07/11 04:50:22;;;;;;;;;;;;;;;25.87;52.73;99617.34;4500834;31;33540;-76
2023/07/11 04:52:57;;;;;;;;;;;;;;;26.21;51.85;99612.84;4495205;31;34825;-76
2023/07/11 04:55:32;;;;;;;;;;;;;;;26.39;51.00;99613.22;4499890;31;34832;-77
2023/07/11 04:58:01;;;;;;;;;;;;;;;26.99;48.72;99614.53;4496999;31;33040;-77
2023/07/11 05:00:36;;;;;;;;;;;;;;;27.10;48.21;99618.97;4495396;31;34655;-76
2023/07/11 05:03:05;;;;;;;;;;;;;;;27.36;46.73;99622.13;4499264;31;33778;-76
2023/07/11 05:05:36;;;;;;;;;;;;;;;27.12;47.25;99617.00;4507252;31;33975;-77
2023/07/11 05:08:04;;;;;;;;;;;;;;;26.95;47.91;99612.25;4493223;31;33462;-75
2023/07/11 05:10:38;;;;;;;;;;;;;;;27.08;46.88;99614.72;4510238;31;33989;-76
2023/07/11 05:13:07;;;;;;;;;;;;;;;27.18;47.09;99618.31;4515238;31;33792;-75
2023/07/11 05:15:38;;;;;;;;;;;;;;;27.41;47.09;99608.44;4496096;31;34704;-75
2023/07/11 05:18:06;;;;;;;;;;;;;;;27.29;47.49;99617.47;4496160;31;34054;-75
2023/07/11 05:20:39;;;;;;;;;;;;;;;27.36;46.67;99613.31;4504101;31;33676;-76
2023/07/11 05:23:08;;;;;;;;;;;;;;;27.36;47.24;99615.97;4510177;31;33982;-76
2023/07/11 05:25:38;;;;;;;;;;;;;;;27.03;48.18;99617.78;4495259;31;32192;-77
2023/07/11 05:28:07;;;;;;;;;;;;;;;27.05;48.10;99613.19;4493556;31;34049;-75
2023/07/11 05:30:38;;;;;;;;;;;;;;;26.96;47.91;99608.59;4494873;31;33770;-77
2023/07/11 05:33:07;;;;;;;;;;;;;;;26.98;48.03;99614.66;4499231;31;34669;-77
2023/07/11 05:35:46;;;;;;;;;;;;;;;26.90;48.21;99625.09;4505804;31;33883;-74
2023/07/11 05:38:16;;;;;;;;;;;;;;;26.43;49.39;99624.44;4498739;31;33444;-74
2023/07/11 05:40:46;;;;;;;;;;;;;;;26.73;48.37;99624.66;4493810;31;34433;-76
2023/07/11 05:43:15;;;;;;;;;;;;;;;26.59;49.50;99624.94;4494613;31;33958;-77
2023/07/11 05:45:43;;;;;;;;;;;;;;;27.01;48.09;99627.69;4504515;31;34193;-77
2023/07/11 05:48:12;;;;;;;;;;;;;;;27.17;48.16;99633.44;4514905;31;34137;-76
2023/07/11 05:50:42;;;;;;;;;;;;;;;27.10;48.11;99631.44;4501748;31;33871;-75
2023/07/11 05:53:14;;;;;;;;;;;;;;;26.94;48.30;99638.03;4494243;31;34117;-75
2023/07/11 05:55:43;;;;;;;;;;;;;;;26.91;48.53;99632.09;4494461;31;34764;-75
2023/07/11 05:58:16;;;;;;;;;;;;;;;26.64;48.68;99632.53;4501387;31;33831;-75
2023/07/11 06:00:48;;;;;;;;;;;;;;;26.64;49.25;99643.19;4505208;31;34760;-75
2023/07/11 06:03:17;;;;;;;;;;;;;;;27.09;48.62;99645.72;4498934;31;33952;-77
2023/07/11 06:05:53;;;;;;;;;;;;;;;27.14;47.97;99643.53;4494491;31;34634;-75
2023/07/11 06:08:22;;;;;;;;;;;;;;;26.91;49.23;99640.09;4495773;31;34344;-76
2023/07/11 06:10:56;;;;;;;;;;;;;;;26.71;49.54;99655.88;4497971;31;34810;-76
2023/07/11 06:13:27;;;;;;;;;;;;;;;26.51;50.70;99651.28;4500464;31;34016;-74
2023/07/11 06:16:01;;;;;;;;;;;;;;;26.70;49.87;99656.84;4497132;31;34002;-77
2023/07/11 06:18:30;;;;;;;;;;;;;;;26.62;50.93;99651.28;4495325;31;32881;-74
2023/07/11 06:21:05;;;;;;;;;;;;;;;26.65;50.37;99661.72;4499769;31;33693;-76
2023/07/11 06:23:39;;;;;;;;;;;;;;;26.58;50.95;99657.84;4499914;31;33511;-77
2023/07/11 06:26:08;;;;;;;;;;;;;;;26.61;50.08;99662.91;4493741;31;34218;-75
2023/07/11 06:28:40;;;;;;;;;;;;;;;26.69;50.28;99660.47;4504277;31;32969;-77
2023/07/11 06:31:09;;;;;;;;;;;;;;;26.77;50.16;99657.19;4497902;31;33436;-76
2023/07/11 06:33:39;;;;;;;;;;;;;;;27.14;48.53;99655.03;4499439;31;33980;-76
2023/07/11 06:36:09;;;;;;;;;;;;;;;26.86;49.36;99651.13;4498062;31;34522;-75
2023/07/11 06:38:39;;;;;;;;;;;;;;;27.19;49.04;99657.34;4503908;31;32354;-75
2023/07/11 06:41:08;;;;;;;;;;;;;;;27.21;48.65;99656.25;4496353;31;34198;-75
2023/07/11 06:43:46;;;;;;;;;;;;;;;27.05;48.63;99653.13;4493524;31;33861;-78
2023/07/11 06:46:15;;;;;;;;;;;;;;;27.43;48.47;99657.09;4502077;31;33180;-75
2023/07/11 06:48:45;;;;;;;;;;;;;;;27.29;48.43;99654.75;4492655;31;33160;-76
2023/07/11 06:51:13;;;;;;;;;;;;;;;27.36;48.26;99650.59;4494573;31;33931;-74
2023/07/11 06:56:16;;;;;;;;;;;;;;;27.10;48.28;99660.72;4493926;31;33948;-76
2023/07/11 06:58:49;;;;;;;;;;;;;;;26.93;49.03;99659.44;4510079;31;33411;-77
2023/07/11 07:01:22;;;;;;;;;;;;;;;27.02;49.71;99651.56;4501982;31;34683;-75
2023/07/11 07:04:05;;;;;;;;;;;;;;;27.34;48.40;99657.87;4500185;31;33851;-76
2023/07/11 07:06:39;;;;;;;;;;;;;;;27.55;47.84;99658.72;4492272;31;34420;-75
2023/07/11 07:09:08;;;;;;;;;;;;;;;27.58;47.88;99658.47;4493832;31;33300;-77
2023/07/11 07:11:42;;;;;;;;;;;;;;;27.47;47.84;99655.00;4497947;31;33745;-75
2023/07/11 07:14:15;;;;;;;;;;;;;;;27.66;48.14;99663.97;4493033;31;34704;-76
2023/07/11 07:16:43;;;;;;;;;;;;;;;27.62;48.50;99664.41;4492135;31;34175;-76
2023/07/11 07:19:17;;;;;;;;;;;;;;;27.96;48.17;99659.72;4492618;31;33931;-77
2023/07/11 07:21:45;;;;;;;;;;;;;;;28.04;48.08;99657.22;4497589;31;33797;-77
2023/07/11 07:24:14;;;;;;;;;;;;;;;28.04;47.86;99667.88;4498413;31;35173;-76
2023/07/11 07:26:46;;;;;;;;;;;;;;;28.34;47.15;99668.00;4495156;31;33101;-76
2023/07/11 07:29:21;;;;;;;;;;;;;;;28.42;46.41;99674.38;4495223;31;33022;-75
2023/07/11 07:31:49;;;;;;;;;;;;;;;28.38;46.92;99672.94;4497488;31;33284;-75
2023/07/11 07:34:19;;;;;;;;;;;;;;;28.46;46.54;99667.84;4501057;31;34419;-77
2023/07/11 07:36:48;;;;;;;;;;;;;;;28.58;47.08;99663.22;4500447;31;33577;-75
2023/07/11 07:39:16;;;;;;;;;;;;;;;28.70;46.46;99669.28;4494421;31;32879;-75
2023/07/11 07:41:49;;;;;;;;;;;;;;;28.92;45.99;99663.72;4499055;31;33650;-76
2023/07/11 07:44:20;;;;;;;;;;;;;;;28.92;46.20;99662.84;4500425;31;33882;-77
2023/07/11 07:46:52;;;;;;;;;;;;;;;28.65;47.09;99667.00;4506682;31;35548;-75
2023/07/11 07:49:24;;;;;;;;;;;;;;;28.71;46.51;99669.16;4495168;31;33675;-76
2023/07/11 07:51:53;;;;;;;;;;;;;;;28.47;46.77;99666.84;4500798;31;34237;-75
2023/07/11 07:54:22;;;;;;;;;;;;;;;28.54;46.97;99667.16;4510123;31;35054;-74
2023/07/11 07:56:55;;;;;;;;;;;;;;;28.30;46.93;99672.78;4500517;31;34137;-75
2023/07/11 07:59:25;;;;;;;;;;;;;;;28.26;46.71;99674.88;4497814;31;33432;-76
2023/07/11 08:01:54;;;;;;;;;;;;;;;28.48;47.06;99668.50;4501025;31;33603;-76
2023/07/11 08:04:24;;;;;;;;;;;;;;;28.73;46.70;99669.03;4495211;31;34740;-75
2023/07/11 08:06:53;;;;;;;;;;;;;;;28.84;45.17;99668.88;4500107;31;33114;-74
2023/07/11 08:09:23;;;;;;;;;;;;;;;28.86;45.63;99677.62;4499071;31;32901;-76
2023/07/11 08:12:04;;;;;;;;;;;;;;;28.67;45.31;99683.75;4493612;31;34278;-75
2023/07/11 08:14:38;;;;;;;;;;;;;;;28.70;45.46;99672.78;4494124;31;33457;-76
2023/07/11 08:17:08;;;;;;;;;;;;;;;28.97;44.69;99683.81;4495211;31;34940;-78
2023/07/11 08:19:41;;;;;;;;;;;;;;;29.07;43.90;99672.19;4500089;31;31835;-76
2023/07/11 08:22:12;;;;;;;;;;;;;;;29.19;44.11;99677.38;4502151;31;33207;-75
2023/07/11 08:24:44;;;;;;;;;;;;;;;29.22;43.60;99682.47;4502436;31;35238;-77
2023/07/11 08:27:14;;;;;;;;;;;;;;;29.31;43.96;99679.81;4496498;31;34251;-75
2023/07/11 08:29:47;;;;;;;;;;;;;;;29.43;43.80;99676.97;4494949;31;33273;-75
2023/07/11 08:32:19;;;;;;;;;;;;;;;29.30;43.32;99686.09;4502081;31;34660;-76
2023/07/11 08:34:49;;;;;;;;;;;;;;;29.69;42.96;99680.75;4498184;31;33740;-75
2023/07/11 08:37:21;;;;;;;;;;;;;;;29.88;41.53;99684.41;4494605;31;32797;-75
2023/07/11 08:39:49;;;;;;;;;;;;;;;29.83;42.23;99681.31;4494338;31;34175;-76
2023/07/11 08:42:22;;;;;;;;;;;;;;;29.88;41.65;99687.91;4499466;31;33949;-76
2023/07/11 08:44:52;;;;;;;;;;;;;;;29.82;39.71;99684.97;4500505;31;34237;-76
2023/07/11 08:47:25;;;;;;;;;;;;;;;29.72;38.36;99685.84;4494426;31;34233;-77
2023/07/11 08:49:55;;;;;;;;;;;;;;;29.81;38.79;99681.44;4496684;31;34085;-76
2023/07/11 08:52:32;;;;;;;;;;;;;;;29.73;37.93;99682.19;4510441;31;33948;-77
2023/07/11 08:55:03;;;;;;;;;;;;;;;29.70;37.95;99686.97;4505796;31;34303;-76
2023/07/11 08:57:35;;;;;;;;;;;;;;;29.84;36.74;99685.66;4498329;31;33878;-76
2023/07/11 09:00:14;;;;;;;;;;;;;;;29.90;38.12;99693.12;4495583;31;33903;-75
2023/07/11 09:02:54;;;;;;;;;;;;;;;29.64;38.71;99688.34;4497293;31;34042;-77
2023/07/11 09:05:33;;;;;;;;;;;;;;;30.03;39.62;99703.50;4492813;31;33680;-76
2023/07/11 09:08:02;;;;;;;;;;;;;;;30.11;36.21;99698.28;4496313;31;34822;-76
2023/07/11 09:10:42;;;;;;;;;;;;;;;29.90;36.86;99683.25;4500778;31;33183;-75
2023/07/11 09:13:28;;;;;;;;;;;;;;;29.77;37.53;99688.09;4502136;31;34499;-77
2023/07/11 09:16:01;;;;;;;;;;;;;;;30.04;35.98;99691.84;4495145;31;33520;-74
2023/07/11 09:18:41;;;;;;;;;;;;;;;30.27;37.55;99685.12;4493597;31;34559;-77
2023/07/11 09:21:12;;;;;;;;;;;;;;;30.21;36.24;99688.37;4497096;31;33900;-75
2023/07/11 09:23:41;;;;;;;;;;;;;;;30.34;37.27;99688.06;4499240;31;33713;-77
2023/07/11 09:26:12;;;;;;;;;;;;;;;30.58;35.26;99691.06;4494304;31;34727;-76
2023/07/11 09:28:41;;;;;;;;;;;;;;;30.57;35.91;99692.06;4505096;31;33899;-75
2023/07/11 09:31:13;;;;;;;;;;;;;;;30.54;36.17;99686.16;4509809;31;34439;-75
2023/07/11 09:33:43;;;;;;;;;;;;;;;30.62;37.06;99691.62;4514082;31;33787;-75
2023/07/11 09:36:23;;;;;;;;;;;;;;;30.60;36.58;99694.44;4513256;31;35230;-74
2023/07/11 09:38:56;;;;;;;;;;;;;;;30.38;37.87;99690.31;4501963;31;33971;-75
2023/07/11 09:41:26;;;;;;;;;;;;;;;30.30;37.15;99692.03;4493026;31;34314;-74
2023/07/11 09:44:16;;;;;;;;;;;;;;;30.19;38.20;99685.84;4507884;31;34261;-75
2023/07/11 09:46:50;;;;;;;;;;;;;;;30.45;37.23;99684.38;4509115;31;35053;-76
2023/07/11 09:49:21;;;;;;;;;;;;;;;30.75;36.45;99673.34;4515323;31;33786;-76
2023/07/11 09:51:51;;;;;;;;;;;;;;;30.39;36.64;99677.78;4496161;31;32053;-75
2023/07/11 09:54:23;;;;;;;;;;;;;;;30.46;36.76;99678.88;4510453;31;34706;-76
2023/07/11 09:56:55;;;;;;;;;;;;;;;31.19;35.76;99676.16;4510418;31;34163;-74
2023/07/11 09:59:24;;;;;;;;;;;;;;;31.20;34.74;99675.19;4506854;31;34703;-76
2023/07/11 10:01:59;;;;;;;;;;;;;;;31.17;34.87;99677.31;4499184;31;32270;-76
2023/07/11 10:04:28;;;;;;;;;;;;;;;30.86;34.80;99675.03;4498134;31;33432;-75
2023/07/11 10:06:58;;;;;;;;;;;;;;;31.03;34.78;99682.22;4493937;31;34568;-74
2023/07/11 10:09:28;;;;;;;;;;;;;;;30.94;34.79;99676.94;4495021;31;33599;-75
2023/07/11 10:12:03;;;;;;;;;;;;;;;30.60;35.76;99673.00;4499838;31;33064;-76
2023/07/11 10:14:32;;;;;;;;;;;;;;;30.95;35.59;99679.47;4497469;31;33444;-76
2023/07/11 10:17:04;;;;;;;;;;;;;;;31.06;35.13;99681.06;4501628;31;34960;-74
2023/07/11 10:19:36;;;;;;;;;;;;;;;30.86;35.99;99682.19;4509774;31;33605;-75
2023/07/11 10:22:15;;;;;;;;;;;;;;;30.72;36.23;99679.00;4510624;31;34100;-76
2023/07/11 10:24:44;;;;;;;;;;;;;;;30.68;36.20;99674.09;4499727;31;34515;-76
2023/07/11 10:27:13;;;;;;;;;;;;;;;30.56;36.41;99666.25;4493724;31;33711;-75
2023/07/11 10:29:52;;;;;;;;;;;;;;;30.88;36.39;99673.03;4493720;31;34008;-74
2023/07/11 10:32:25;;;;;;;;;;;;;;;31.00;36.28;99670.94;4494396;31;34053;-75
2023/07/11 10:34:57;;;;;;;;;;;;;;;31.06;36.19;99677.56;4493413;31;33823;-76
2023/07/11 10:37:27;;;;;;;;;;;;;;;30.90;35.74;99676.38;4499328;31;35079;-76
2023/07/11 10:39:57;;;;;;;;;;;;;;;31.25;34.66;99666.69;4496723;31;34410;-76
2023/07/11 10:42:28;;;;;;;;;;;;;;;31.32;34.45;99670.44;4493392;31;33693;-75
2023/07/11 10:45:04;;;;;;;;;;;;;;;31.14;34.60;99667.75;4493966;31;33762;-74
2023/07/11 10:47:38;;;;;;;;;;;;;;;31.02;34.78;99667.13;4499025;31;34937;-76
2023/07/11 10:50:13;;;;;;;;;;;;;;;31.35;35.26;99672.78;4496210;31;33654;-76
2023/07/11 10:52:41;;;;;;;;;;;;;;;31.59;34.84;99672.19;4496638;31;32825;-75
2023/07/11 10:55:15;;;;;;;;;;;;;;;31.60;34.53;99663.13;4494977;31;33779;-75
2023/07/11 10:57:45;;;;;;;;;;;;;;;31.73;33.06;99662.75;4495524;31;35204;-76
2023/07/11 11:00:21;;;;;;;;;;;;;;;31.92;33.52;99667.06;4500975;31;33673;-77
2023/07/11 11:02:58;;;;;;;;;;;;;;;31.59;33.36;99666.81;4496386;31;33829;-74
2023/07/11 11:05:30;;;;;;;;;;;;;;;31.37;33.88;99662.78;4498306;31;33732;-75
2023/07/11 11:08:02;;;;;;;;;;;;;;;31.25;34.02;99680.91;4496345;31;34092;-76
2023/07/11 11:10:34;;;;;;;;;;;;;;;31.12;34.86;99659.03;4495334;31;33403;-75
2023/07/11 11:13:04;;;;;;;;;;;;;;;31.49;34.39;99655.34;4500795;31;34049;-75
2023/07/11 11:15:36;;;;;;;;;;;;;;;31.34;34.70;99647.00;4496822;31;34937;-75
2023/07/11 11:18:13;;;;;;;;;;;;;;;31.41;34.52;99653.47;4495933;31;34114;-74
2023/07/11 11:20:45;;;;;;;;;;;;;;;31.52;34.16;99654.19;4495472;31;33572;-75
2023/07/11 11:23:41;;;;;;;;;;;;;;;31.49;34.43;99643.81;4496624;31;33249;-74
2023/07/11 11:26:15;;;;;;;;;;;;;;;31.78;34.30;99643.50;4503129;31;34824;-75
2023/07/11 11:28:46;;;;;;;;;;;;;;;31.88;34.02;99631.62;4515355;31;34249;-75
2023/07/11 11:31:24;;;;;;;;;;;;;;;32.05;34.69;99647.88;4511483;31;34014;-76
2023/07/11 11:33:59;;;;;;;;;;;;;;;32.23;33.63;99637.88;4511952;31;33185;-75
2023/07/11 11:36:29;;;;;;;;;;;;;;;31.80;33.96;99642.34;4512100;31;34362;-75
2023/07/11 11:39:11;;;;;;;;;;;;;;;31.63;34.74;99633.34;4517086;31;33564;-75
2023/07/11 11:41:44;;;;;;;;;;;;;;;32.16;34.12;99634.19;4516401;31;35093;-75
2023/07/11 11:44:14;;;;;;;;;;;;;;;32.01;33.62;99625.03;4515611;31;32818;-76
2023/07/11 11:46:48;;;;;;;;;;;;;;;32.23;33.95;99631.66;4511549;31;34872;-76
2023/07/11 11:49:25;;;;;;;;;;;;;;;32.10;34.29;99632.97;4511666;31;35098;-75
2023/07/11 11:52:12;;;;;;;;;;;;;;;31.96;34.47;99630.03;4500132;31;33506;-74
2023/07/11 11:54:49;;;;;;;;;;;;;;;32.03;34.08;99620.34;4516618;31;32721;-75
2023/07/11 11:57:20;;;;;;;;;;;;;;;32.40;33.92;99614.63;4510860;31;34521;-76
2023/07/11 11:59:54;;;;;;;;;;;;;;;32.69;33.68;99614.25;4510763;31;34296;-75
2023/07/11 12:02:31;;;;;;;;;;;;;;;33.33;32.97;99619.84;4504534;31;34807;-76
2023/07/11 12:05:02;;;;;;;;;;;;;;;33.17;31.69;99613.66;4495415;31;33209;-74
2023/07/11 12:07:33;;;;;;;;;;;;;;;33.44;32.31;99618.69;4499920;31;33903;-76
2023/07/11 12:10:18;;;;;;;;;;;;;;;33.46;32.82;99613.94;4494656;31;33520;-76
2023/07/11 12:12:54;;;;;;;;;;;;;;;33.55;31.87;99612.09;4495109;31;34214;-77
2023/07/11 12:15:24;;;;;;;;;;;;;;;33.59;31.32;99613.47;4494488;31;32832;-75
2023/07/11 12:17:52;;;;;;;;;;;;;;;33.24;31.91;99609.28;4495167;31;33519;-74
2023/07/11 12:20:28;;;;;;;;;;;;;;;33.13;31.70;99613.16;4500575;31;33949;-75
2023/07/11 12:23:22;;;;;;;;;;;;;;;32.81;32.17;99616.59;4507380;31;34550;-75
2023/07/11 12:26:13;;;;;;;;;;;;;;;32.68;32.43;99604.50;4510619;31;32916;-75
2023/07/11 12:28:49;;;;;;;;;;;;;;;32.95;32.43;99607.88;4510185;31;34800;-75
2023/07/11 12:31:19;;;;;;;;;;;;;;;33.05;31.30;99599.69;4511841;31;34351;-77
2023/07/11 12:34:02;;;;;;;;;;;;;;;33.31;31.72;99604.91;4513324;31;33839;-76
2023/07/11 12:36:54;;;;;;;;;;;;;;;33.48;31.54;99594.97;4516115;31;33152;-75
2023/07/11 12:39:38;;;;;;;;;;;;;;;33.66;31.15;99608.25;4508295;31;34692;-75
2023/07/11 12:42:10;;;;;;;;;;;;;;;33.43;31.27;99603.53;4495561;31;33913;-74
2023/07/11 12:44:46;;;;;;;;;;;;;;;33.55;31.08;99587.91;4496448;31;33469;-76
2023/07/11 12:47:20;;;;;;;;;;;;;;;33.95;30.29;99592.38;4494727;31;32832;-76
2023/07/11 12:49:50;;;;;;;;;;;;;;;34.10;30.73;99594.38;4500194;31;33813;-74
2023/07/11 12:52:24;;;;;;;;;;;;;;;34.23;30.37;99585.72;4498739;31;33580;-75
2023/07/11 12:54:56;;;;;;;;;;;;;;;34.23;30.69;99594.63;4496287;31;34348;-75
2023/07/11 12:57:27;;;;;;;;;;;;;;;33.98;30.51;99591.19;4494204;31;33238;-76
2023/07/11 12:59:56;;;;;;;;;;;;;;;34.15;30.59;99583.91;4494309;31;33256;-74
2023/07/11 13:02:31;;;;;;;;;;;;;;;34.26;30.36;99579.97;4499945;31;33986;-76
2023/07/11 13:05:00;;;;;;;;;;;;;;;34.42;30.63;99585.28;4495172;31;34659;-75
2023/07/11 13:07:37;;;;;;;;;;;;;;;34.44;30.24;99577.03;4496790;31;33353;-74
2023/07/11 13:10:17;;;;;;;;;;;;;;;34.69;29.56;99575.88;4510862;31;34118;-77
2023/07/11 13:12:52;;;;;;;;;;;;;;;34.76;29.71;99574.13;4496015;31;33067;-75
2023/07/11 13:15:22;;;;;;;;;;;;;;;34.24;29.96;99573.91;4512959;31;34190;-75